Espace membre
ImprimablePdf
Challenges > Delhalle - Louette Saint-Pierre, 24/07/2010, BEL - L'Ardennaise
Liste des rapports > Delhalle - 22.5km - Classement
Recherche: Page: [1] 2 3 4
602 Entrées
 
Les réclamations ne sont plus acceptées, les résultats sont considérés comme définitifs.
Catégorie
PosNrNomAgeIOCLigueEquipeRéelTempsTkmMoy.RangNomPtsLocalité
1.2560DUPONT Eddy41BELMOHAOXY 20001:21:181:21:203:37 16.601ve11103ECAUSSINNES
2.686GALERIN Denis26BELDAMPANTILOB1:21:391:21:403:38 16.531sen1097WAVRE
3.3NEMETH Christian39BELCABWESM1:21:381:21:403:38 16.532sen1097MONCEAU SUR SAM
4.644POCHET Anthony27BEL1:21:471:21:493:39 16.503sen1094BEAURAING
5.2592DENIS Sylvain27BELTRIGT1:21:591:22:013:39 16.464sen1091
6.4VANDERBECK Yves42BELRIWARONVAU1:22:261:22:273:40 16.372ve11085MALONNE
7.2316THEUNIS Gert Hilda35BELFCHAASICS1:24:011:24:043:45 16.065sen1064HANNUT
8.238VAN DEN ABEELE Sebastian40BELACLO1:25:521:25:533:50 15.723ve11041CARNIERES
9.659MAHIA Sebastien24BELSMAC1:25:511:25:533:50 15.726sen1041JAMBES
10.597DECOURTY Jimmy36BELDSDS RUNNING1:26:511:26:533:52 15.547sen1028BOUSSU
11.342LOMBART Frederic43BELOCAN1:27:191:27:213:53 15.464ve11022GEMBLOUX
12.767CAMBRAI Christian46BELDAMP1:28:031:28:063:55 15.325ve11013LIBRAMONT
13.2546VANDERLINDEN Marc52BELCEPAL1:28:191:28:243:56 15.271ve21009WATERMAEL
14.699ETIENNE Fabrice41BELRCNAMUR1:29:451:29:474:00 15.046ve1992FLOREFFE
15.11DUBOIS Michel53BELHERVJOGGPLUS1:29:551:29:574:00 15.012ve2989WELKENRAEDT
16.2585BAUDSON Marcel50BELCEPAL1:30:431:30:474:03 14.873ve2979BRUXELLES
17.291PAULY Michel49BELHERV1:30:591:31:014:03 14.837ve1976BOLLAND
18.2548CAMUS Renaud31BELPSA CITROEN1:31:031:31:074:03 14.828sen974
19.548LEPIED Philippe50BELGERP & CO1:31:041:31:084:04 14.814ve2974GERPINNES
20.2487WEETS Olivier39BELSOLVAY BUSIN1:31:191:31:214:04 14.789sen970BEERSEL
21.780HERMANS Luc53BELDCLA1:31:381:31:404:05 14.735ve2966LINKHOUT
22.2262FRANCIS Alain48BELFLEUESM1:31:401:31:434:05 14.728ve1965RANSART
23.278HANOT Serge47BELRONVAU1:31:451:31:474:05 14.719ve1964LIERNU
24.2278SNOECK Didier40BELCEPAL1:31:541:31:584:06 14.6810ve1961TERVUREN
25.2298HARDENNE Andre45BEL1:31:591:32:024:06 14.6711ve1960FLEURUS
26.2277SCHIMENTI Fabrice41BELTRIGT1:32:251:32:354:07 14.5812ve1954ELLEZELLES
27.2616PIRON Mathieu Hugues30BELARCH1:32:311:32:434:08 14.5610sen953MALONNE
28.6BULTOT Christian52BELARCHJOGGPLUS1:32:471:32:504:08 14.546ve2949SCHALTIN
29.15HENIN Didier52BELFLEUJOGGPLUS1:33:061:33:094:09 14.497ve2945CHATELET
30.5FVANDROOGENBROECK Virginie39BELCABWJOGGPLUS1:33:321:33:354:10 14.431dam939BRAINE L'ALLEUD
31.921ROSSI Claude52BELJOGGPLUS1:33:331:33:364:10 14.428ve2939YVOIR
32.717FDELDICQUE Louise29BELCSDY1:33:561:33:594:11 14.362dam934
33.230SANCHEZ POSADA Luis50BELUSBWCACE1:34:021:34:064:11 14.359ve2932RHODE ST GENESE
34.327CANTELLA Massimo37BELMYSTERE1:34:021:34:064:11 14.3511sen932BEAUVECHAIN
35.689KRINGS Viktor50BELRURSEE MAR1:34:051:34:094:12 14.3410ve2931NIDRUM
36.2519DEMARS Maxime22BELJCCS1:34:211:34:384:13 14.2712sen927
37.2489VERSTREPEN Frédéric Christian38BELJOGPLUS1:34:411:34:444:13 14.2513sen923LA BRUYÈRE
38.228MARCHAL Yves40BELRUN WILD1:34:581:35:034:14 14.2013ve1919VEDRIN
39.2283VERRUE Vincent34BELWALCOURSE1:35:051:35:084:14 14.1914sen917YVES-GOMEZÉE
40.406NEYMAN Eric42BEL1:35:261:35:294:15 14.1414ve1913HERON
41.2476DENEEF Alfons56BELAXA TEAM1:35:431:35:454:16 14.1011ve2910LIEDEKERKE
42.2273MIEVIS Stéphane31BEL1:36:051:36:164:17 14.0215sen905
43.2531GUILLEMAIN Stephane35BELLCM1:36:161:36:184:17 14.0216sen902
44.2351ADAM Pierre26BEL1:36:201:36:204:17 14.0117sen901RIENNE
45.490MORA-CUEVAS Rafael39BELOSGATEAM PVERT1:35:571:36:264:18 14.0018sen905HAUTRAGE
46.75RIGUELLE Francois29BELFLEUFLEU ATHL1:36:571:37:074:19 13.9019sen893SOMBREFFE
47.625WOOLF Alain49BELAC ORLE JOUR1:37:191:37:224:20 13.8715ve1889DONCEEL
48.2299RENARD Yves44BELPWERES1:37:031:37:284:20 13.8516ve1891
49.2594DEGEIMBRE Michel48BELARCHARCH1:37:301:37:344:21 13.8417ve1886AWAGNE
50.2466FAGNON Regis49FRAAC AY1:37:351:37:414:21 13.8218ve1884
51.321ORVAL Alain41BELHAC1:37:421:37:454:21 13.8119ve1882CINEY
52.181LABBE J.Marie50BEL1:38:061:38:094:22 13.7512ve2878EGHEZEE
53.237DOS SANTOS NEIVA Sergio37BELARCH1:38:291:38:314:23 13.7020sen873DINANT
54.774RICHARD Andre56BELARCHASICS1:38:541:38:594:24 13.6413ve2868SAINT SERVAIS
55.445RUELLE Jean38BELETCHIEVR1:38:591:39:034:25 13.6321sen866WEZEMBEEK-OPPEM
56.2605LEYDER Olivier34BELESPACE CYCLE1:38:541:39:114:25 13.6122sen867TATTERT
57.2294TUTELAIRE Marc47BEL1:39:241:39:274:26 13.5720ve1861
58.2523JACQMIN Damien Nestor31BEL1:39:411:39:504:27 13.5223sen857LIBIN
59.2575ZACARIAS Laurent45FRAUSCN1:39:441:39:534:27 13.5221ve1857VRIGNE AUX BOIS
60.2587CASTEELS Nicolas30BELCEPAL1:40:031:40:084:28 13.4824sen852WAVRE
61.2446FVANDERMEULEN Séverine29BELCEPAL1:40:041:40:084:28 13.483dam852LIÈGE
62.2638BAUDOUIN Jean-Marc31BEL1:40:121:40:224:28 13.4525sen850
63.772FSCHAFFRATH Ginette45BELRFCLMYSTERE1:40:211:40:264:28 13.441ai1848COMBLAIN-FAIRON
64.697VAN BAVEL Gertjan21BELAVN1:40:181:40:264:28 13.4426sen847MINDERHOUT
65.2535AMEYE Jo48BELATAC1:40:261:40:324:29 13.4322ve1845
66.518UITDEBROEKS Romain60BELACA1:40:351:40:384:29 13.421ve3844ALKEN
67.604DESSAMBRE Marcel61BELOCANJOGGPLUS1:40:361:40:404:29 13.412ve3843NAMECHE
68.2352BAIJOT Eric44BELARCH1:40:521:40:554:30 13.3823ve1839DINANT
69.2483CASTERMANS David Christian39BEL1:40:331:41:014:30 13.3627sen842LA BRUYÈRE
70.2543LECOMTE Florent32BELUSCN1:40:561:41:044:30 13.3628sen838
71.2437THYS Ronny47BELVACH1:41:041:41:094:30 13.3524ve1836HASSELT
72.2626TASSIAUX Olivier29BEL1:41:091:41:234:31 13.3229sen834FAULX-LES-TOMBE
73.2393HECQ Olivier44BELJ31:41:011:41:244:31 13.3125ve1835ANDENNE
74.714MAILIER Christian54BELCRACESM1:40:451:41:284:31 13.3014ve2837ROUX
75.2564DEWULF Luc51BELHAC -1:41:261:41:344:31 13.2915ve2830BEKEGEM
76.2292GIGOT Jacques Emile43BEL1:41:311:41:374:31 13.2926ve1828ANDERLECHT
77.146VAN NEVEL Frans56BELBEHO1:41:311:41:544:32 13.2516ve2828BRUGGE
78.2558DEBOUNY Nicolas43BEL1:41:451:42:024:33 13.2327ve1825
79.783POCHET Fabrice44BEL1:42:091:42:134:33 13.2128ve1820ANDENNE
80.2619VANRIE Pierre Andre43BELGTC1:42:101:42:324:34 13.1729ve1819SAINT-GILLES
81.675TRUYERS Hugo62BELDCLA1:42:341:42:364:34 13.163ve3815LINKHOUT
82.2257DENDAL Didier47BEL1:42:311:42:374:34 13.1630ve1815LIÈGE
83.2374DELHASSE Pierre53BEL1:42:351:42:404:34 13.1517ve2813BAILLAMONT
84.2260DUPRET Didier43BELBAC1:42:461:42:474:35 13.1331ve1811CHERCQ
85.2474HEMERYCK Willy51BELSODIBR1:43:001:43:064:35 13.0918ve2808SINT-KRUIS
86.2456BAUDSON Jacques51BELCEPALCEPAL1:43:141:43:174:36 13.0719ve2805GOSSELIES
87.2559DA SILVA Tony34PRTRTS1:43:041:43:204:36 13.0630sen807SPRIMONT
88.2398KINET Maxime28BEL1:43:131:43:254:36 13.0531sen804
89.2550FFROMENT Sabine35BELACCORCNAMUR1:43:211:43:324:37 13.044dam802LOBBES
90.535ROMBAUX Marc50BELCSDY1:43:171:43:324:37 13.0420ve2802LOUVAIN LA NEUV
91.2408MAQUA Frédéric43FRAGRAC1:43:471:43:534:38 13.0032ve1797LUMES
92.599OUDAR Benoit28BELBAIL RUN1:44:151:44:234:39 12.9332sen792FLOREFFE
93.742RATINCKX Christophe19BELRIWA1:44:381:44:464:40 12.891esp787BIERGES
94.706LEGRAIN Fabrice37BEL1:44:411:44:494:40 12.8833sen786ECAUSSINNES
95.431MARTIN Eric47BEL1:44:251:44:494:40 12.8833ve1788WANDRE
96.2586ROSILLON Dominique Gaston53BELARCH1:44:441:44:514:40 12.8821ve2785GESVES
97.2540PIHET Vincent39FRAMONTHERME1:44:521:44:524:40 12.8734sen783
98.852PEETERS Gerard57BELANTILOB1:44:561:45:044:41 12.8522ve2781HAMME-MILLE
99.906DELVAUX Paul66BELACACAMPFOOT1:45:021:45:084:41 12.844ve3780DIEPENBEEK
100.2475CORNELIS Wim54BEL1:45:201:45:274:42 12.8023ve2776WAMBEEK
101.122FELIERS Eddy42BELKAPUCIJN1:45:231:45:304:42 12.8034ve1775TERVUREN
102.58HENRY Andre50BELTENDONS1:45:261:45:324:42 12.7924ve2774LA HULPE
103.2496MASSINON Jules19BEL1:45:231:45:384:42 12.782esp774
104.2414MORAT Nicolas41FRAFJEP ATTIGNY1:45:311:45:394:42 12.7835ve1772
105.2477SMEETS Jef55BELVALSACN1:45:271:45:404:42 12.7825ve2772
106.2479GIELKENS Ruddi51BELSACN1:45:281:45:404:42 12.7826ve2772
107.2275OLIVIER Philippe43BEL1:45:221:45:444:42 12.7736ve1772HANEFFE
108.2427REBUFFAT Clément37BELJCCS1:45:371:45:474:43 12.7635sen769LOUETTE-SAINT-P
109.2637BARBIER Amory16BEL1:45:431:45:534:43 12.753esp768
110.2252FBELABBES Angelique36BELCEPAL1:45:381:45:554:43 12.755dam768TERVUREN
111.2288BEEKEN Walther60BELJOGGING +1:46:031:46:094:44 12.725ve3763LIEDEKERKE
112.2459TORDOIR Eric48BELRCB1:45:531:46:114:44 12.7137ve1764LA LOUVIERE
113.2541WARNIER Nicolas37FRA1:46:071:46:144:44 12.7136sen761
114.606LESNE Didier46BELLDLV1:45:441:46:164:44 12.7038ve1765BRAINE L'ALLEUD
115.595SOREIL Patrick48BELARCH1:46:041:46:304:44 12.6839ve1761DINANT
116.2312DEPUTTER Francis44BELTAIAUT1:45:451:46:384:45 12.6640ve1763CHATELET
117.46FOLIX Cheila47BELARCH1:46:341:46:394:45 12.662ai1755BEAURAING
118.2562DA CRUZ Jean54BEL1:46:281:46:414:45 12.6527ve2755NAMUR
119.2402LAUREYS Pierre49BELANTILOB1:46:001:46:454:45 12.6541ve1759LOUVAIN-LA-NEUV
120.544COLLET Sebastien25BEL1:46:331:46:454:45 12.6537sen753LEGLISE
120.2525NAVET Ludovic19BEL1:46:431:46:454:45 12.654esp752CHANLY
122.2440VALANGE Jean49BELARCHARCH1:46:181:46:504:45 12.6442ve1755SERINCHAMPS
123.125FVAN DER ZWALMEN Sabine30BELRIWA1:46:591:47:024:46 12.616dam747LASNE
124.254FLORENT Xavier32BEL1:46:581:47:074:46 12.6038sen747NAMUR
125.2642CUVILLIERS Benoit38FRA1:47:221:47:274:47 12.5639sen742VILLENEUVE D'AS
126.621PAYE Dominique43BEL1:47:211:47:334:47 12.5543ve1742NAMUR
127.703BINKERT Marc49BELLDLV1:47:271:47:404:48 12.5444ve1741GANSHOREN
128.580HOMBROUX Marcel57BELFCHA1:47:121:47:434:48 12.5328ve2742GINGELOM
129.22DE MASI Gianni57BELFLEU1:47:331:47:464:48 12.5329ve2738WANFERCEE BAULE
130.2611GOOSSE Gerard58BEL1:47:241:47:564:48 12.5130ve2739ARVILLE
131.427VAN DER LINDEN Paul61BELRCNAMUR1:47:531:47:574:48 12.516ve3734MALONNE
132.71DE HERTOG Daniel51BELGRIM1:47:581:48:024:49 12.5031ve2732GRIMBERGEN
133.2305OOSTLAND Stephane40BEL1:48:001:48:144:49 12.4745ve1732MAZY
134.2608JACQMIN Nathanaël45BEL1:48:121:48:304:50 12.4446ve1729MALONNE
135.737DE PESSEMIER Michel53BELACG1:48:251:48:364:50 12.4332ve2727BRAKEZ
136.93FBUZIN Donatienne43BELARCH1:48:411:48:544:51 12.403ai1724HAN SUR LESSE
137.626HANSEN J.Marie52BEL1:48:541:49:004:51 12.3933ve2721SPY
138.2405LEVACQ Guy64BEL1:49:041:49:174:52 12.357ve3719
139.672DELIEGE Robert57BELRONVAU1:49:121:49:214:52 12.3534ve2717GEMBLOUX
140.521RAEYMAEKERS Ludovic56BELBRABO1:49:241:49:334:53 12.3235ve2714EKEREN
141.404TILBURGS Frank43BELAVN1:49:291:49:374:53 12.3247ve1713MEER
142.234GILSON Nicolas22BELARCH1:49:081:49:414:53 12.3140sen716CINEY
143.2462LALLEMAND Luc50BELCEPAL1:49:441:49:514:53 12.2936ve2710BRUXELLES
144.2314STEINIER Thierry48BELJCHSH1:49:521:50:034:54 12.2748ve1708JUMET
145.2511BOUSMANNE Marc37BELCEPAL1:50:081:50:144:54 12.2541sen705SAINT-SYMPHORIE
146.2612DE BILDERING Georges43BELSMAC1:50:061:50:194:55 12.2449ve1705
147.778MINETTE Sebastien30BEL1:50:151:50:244:55 12.2342sen702CHATELINEAU
148.2311BOQUE Didier45BEL1:49:571:50:254:55 12.2350ve1705GRAND LEEZ
149.2388FGOFFINET Florence32BELSMAC1:50:131:50:274:55 12.227dam702JAMBES
150.2461ROGER Pascal45FRA1:50:251:50:334:55 12.2151ve1699CORSEPT
151.671CLARINVAL Julien26BELJCCS1:50:321:50:384:56 12.2043sen698HOUDREMONT
152.2486FBELABBES Myriam36BELCEPAL1:50:401:50:464:56 12.198dam696RHODE SAINT GEN
153.479CORNU Samuel33BEL1:50:421:50:464:56 12.1944sen695PERONNES-LEZ-AN
154.2641BOULET David37BEL1:50:461:50:524:56 12.1845sen694
155.2602LION Cedric38FRA1:50:451:50:574:56 12.1746sen693
156.2404LENAERTS Carl47BEL1:50:501:51:034:57 12.1652ve1692
157.542BOONE Pascal40BELDAMP1:50:401:51:114:57 12.1453ve1693SAINT-MARD
157.660POLET Alain47BELSMAC1:51:021:51:114:57 12.1453ve1690BOUGE
159.438FFAVEAUX Patricia43BELARCH1:51:081:51:124:57 12.144ai1687CINEY
160.179LHOTTE René57FRAHRC1:50:521:51:134:57 12.1437ve2690TERMES
161.210DALCQ Jean-Claude47BELRONVAU1:51:071:51:174:57 12.1355ve1686WALHAIN
162.184LEFEBVRE Daniel55BELETCHIEVR1:51:261:51:374:58 12.0938ve2683CHIEVRES
163.2574BAIJOT Philippe44BEL1:51:241:51:504:59 12.0756ve1683
164.2505SOUMOY Alain48BELJTRR1:51:261:51:574:59 12.0657ve1682
165.2526STEVENS Christophe38BELNAC1:51:381:51:594:59 12.0647sen679NIVELLES
166.2593ENTHOVEN David61BELACD1:51:441:52:004:59 12.058ve3678B-6760 VIRTON
167.2578FSAC Myriam49BELACBBS1:51:551:52:034:59 12.055ai1676
168.556RATINCKX Jean Philippe22BELRIWA1:52:041:52:125:00 12.0348sen674BIERGES
169.429DENEFFE Philippe49BELJCHOUYET1:52:141:52:145:00 12.0358ve1672HOUYET
170.650GLORIEUX Frederic38BEL1:51:411:52:185:00 12.0249sen676ANDERLECHT
171.67FERAUCHE Jean Marie61BELUACDILAVILE1:52:191:52:275:00 12.019ve3670LES BONS VILLER
172.98DEBREUX Yul46BELHRC1:51:581:52:335:01 11.9959ve1672MARBEHAN
173.2530ANDRES Michael32BEL1:52:211:52:335:01 11.9950sen668NAMUR
174.193DI BIASE Renato45ITABOUFFIOL1:52:231:52:375:01 11.9960ve1667COUILLET
175.354RIGAUX Jess45BELHRC1:52:081:52:435:01 11.9861ve1669MARBEHAN
176.2297RENARD Luc46BEL1:52:161:52:475:01 11.9762ve1667PESCHES
177.337DAMSTEN Thierry46FIN1:52:501:52:585:02 11.9563ve1662RO
178.500CHARLIER Jacky50BELARCH1:53:031:53:085:02 11.9339ve2659BEAURAING
179.2389GREGOIRE Etienne41BEL1:52:481:53:105:02 11.9364ve1661VEDRIN
180.2354BODET Quentin17BEL1:52:501:53:115:02 11.935esp660SENSENRUTH
181.259LOUIS Vincent44BELARCH1:52:471:53:135:02 11.9265ve1660CINEY
182.297BOUCHAT Albert43BELJOGGPLUS1:52:441:53:135:02 11.9266ve1660MEUX
183.685LETELLIER Jean Luc45BEL1:53:261:53:265:03 11.9067ve1653WAVRE
184.2604SERVOZ Michel56FRA1:53:071:53:265:03 11.9040ve2655BRUXELLES
185.658BAIJOT Eric44BELARCH1:53:291:53:345:03 11.8968ve1651DINANT
186.601DEMOULIN Laurent37BELBAIL RUN1:53:081:53:375:03 11.8851sen654SAINT SERVAIS
187.705VANDEVENNE Patrick47BELUSBW1:53:251:53:385:04 11.8869ve1650WATERLOO
188.2455GOSSELIN Robert44BELKAAG1:52:501:53:395:04 11.8870ve1656FLOBECQ
189.992LETHE Vincent50BELRONVAU1:53:311:53:415:04 11.8841ve2648TOURINNES-SAINT
190.2524NICOLAS José42BEL1:53:221:53:415:04 11.8871ve1649
191.623PISCART Pierre50BELMOHAOXY20001:53:351:53:485:04 11.8642ve2647HAVRE
192.463WALLEE Alain54BELTENDONS1:53:411:53:515:04 11.8643ve2645LA HULPE
193.2522BUFFET Yannick44BEL1:53:221:53:525:04 11.8672ve1647
194.2501VAN RELEGEM Tony44BEL1:53:391:53:575:04 11.8573ve1645WEERDE
195.2627LACLAVERIE Laurent44BEL1:53:351:53:585:04 11.8574ve1645
196.494SOSSONG Thierry38BEL1:53:521:54:035:05 11.8452sen641MEIX-LE-TIGE
197.2358BULTEL Patrick47FRALA MACÉRIENN1:53:471:54:035:05 11.8475ve1642CHARLEVILLE MEZ
198.478WILMET Paul60BELARCH1:53:371:54:035:05 11.8410ve3643CINEY
199.2274NUYENS Thierry48BELBOUFFIOLS1:53:511:54:055:05 11.8376ve1640TAMINES
200.2515COLLARD Didier47BELPSA ACC1:53:571:54:075:05 11.8377ve1639
DNF: abandon; DSQ: disqualifié; Vitesse en km/h